Time;durP1;ratioP1;P1;durP2;ratioP2;P2;SDS_P1;SDS_P2;PMS_P1;PMS_P2;Temp;Humidity;BMP_temperature;BMP_pressure;BME280_temperature;BME280_humidity;BME280_pressure;Samples;Min_cycle;Max_cycle;Signal;HPM_P1;HPM_P2
2021/12/18 00:00:44;;;;;;;16.23;3.30;;;30.80;99.90;;;;;;5015565;28;20659;-67
2021/12/18 00:03:12;;;;;;;18.87;3.30;;;31.20;99.90;;;;;;5012805;28;20272;-68
2021/12/18 00:05:39;;;;;;;9.57;2.93;;;31.10;99.90;;;;;;5002570;28;20186;-68
2021/12/18 00:08:07;;;;;;;15.25;3.10;;;31.60;99.90;;;;;;4998213;28;20179;-69
2021/12/18 00:10:35;;;;;;;8.60;2.40;;;31.70;99.90;;;;;;5015398;28;20197;-69
2021/12/18 00:13:04;;;;;;;11.43;2.80;;;31.10;99.90;;;;;;5015443;28;20193;-69
2021/12/18 00:15:31;;;;;;;6.30;2.13;;;31.20;99.90;;;;;;5015370;28;20264;-69
2021/12/18 00:17:59;;;;;;;14.07;2.57;;;31.80;99.90;;;;;;5012124;28;20170;-71
2021/12/18 00:20:28;;;;;;;10.80;2.13;;;32.30;99.90;;;;;;5015444;28;20208;-69
2021/12/18 00:22:56;;;;;;;8.83;2.23;;;32.00;99.90;;;;;;5015222;28;20181;-69
2021/12/18 00:25:24;;;;;;;13.30;2.80;;;32.10;99.90;;;;;;5015315;28;20186;-69
2021/12/18 00:27:52;;;;;;;17.77;3.70;;;32.10;99.90;;;;;;4995847;28;20186;-69
2021/12/18 00:30:20;;;;;;;13.50;2.97;;;32.20;99.90;;;;;;4995250;28;20313;-69
2021/12/18 00:32:48;;;;;;;6.07;2.05;;;32.60;99.90;;;;;;5002757;28;20305;-69
2021/12/18 00:35:17;;;;;;;2.58;1.60;;;32.80;99.90;;;;;;5002118;28;20185;-68
2021/12/18 00:37:46;;;;;;;15.13;2.80;;;33.00;99.90;;;;;;5013696;28;20184;-67
2021/12/18 00:40:44;;;;;;;9.18;2.38;;;33.10;99.90;;;;;;5011215;28;20193;-67
2021/12/18 00:43:21;;;;;;;26.42;5.75;;;33.60;99.90;;;;;;4995765;28;20190;-69
2021/12/18 00:45:49;;;;;;;9.02;2.67;;;33.80;99.90;;;;;;4996457;28;20260;-68
2021/12/18 00:48:17;;;;;;;6.22;2.10;;;33.20;99.90;;;;;;5007626;28;20240;-69
2021/12/18 00:50:44;;;;;;;6.72;1.98;;;33.20;99.90;;;;;;5005758;28;20600;-69
2021/12/18 00:53:12;;;;;;;3.65;1.73;;;33.20;99.90;;;;;;5011439;28;20237;-69
2021/12/18 00:55:40;;;;;;;9.65;2.20;;;33.50;99.90;;;;;;5014736;28;20182;-69
2021/12/18 00:58:08;;;;;;;21.60;3.00;;;33.50;99.90;;;;;;5015261;28;20660;-69
2021/12/18 01:00:38;;;;;;;7.80;1.88;;;33.70;99.90;;;;;;5008676;28;20183;-69
2021/12/18 01:03:14;;;;;;;11.18;2.25;;;33.50;99.90;;;;;;5004110;28;20269;-69
2021/12/18 01:05:42;;;;;;;8.68;1.90;;;33.30;99.90;;;;;;5008571;28;20177;-67
2021/12/18 01:08:10;;;;;;;11.63;2.20;;;33.50;99.90;;;;;;5013540;28;20181;-68
2021/12/18 01:10:55;;;;;;;17.08;2.55;;;34.30;99.90;;;;;;5010257;28;20190;-69
2021/12/18 01:13:28;;;;;;;10.55;2.22;;;34.90;99.90;;;;;;5013991;28;20177;-68
2021/12/18 01:16:05;;;;;;;10.95;2.30;;;34.70;99.90;;;;;;5013838;28;20265;-68
2021/12/18 01:24:06;;;;;;;6.00;1.50;;;34.70;99.90;;;;;;4994624;28;20189;-68
2021/12/18 01:26:34;;;;;;;4.25;1.65;;;34.50;99.90;;;;;;5006467;28;20275;-67
2021/12/18 01:29:02;;;;;;;5.72;1.80;;;34.90;99.90;;;;;;5013803;28;20174;-69
2021/12/18 01:31:29;;;;;;;9.65;2.00;;;35.10;99.90;;;;;;5010014;28;20198;-68
2021/12/18 01:33:57;;;;;;;11.25;2.03;;;35.60;99.90;;;;;;5006827;28;20670;-68
2021/12/18 01:36:28;;;;;;;4.32;1.50;;;35.90;99.90;;;;;;5012952;28;20193;-69
2021/12/18 01:38:56;;;;;;;3.33;1.40;;;36.20;99.90;;;;;;5013523;28;20589;-69
2021/12/18 01:41:24;;;;;;;7.22;1.80;;;36.20;99.90;;;;;;4994252;28;20551;-68
2021/12/18 01:52:04;;;;;;;8.20;1.55;;;36.30;99.90;;;;;;5002134;28;20194;-69
2021/12/18 01:54:32;;;;;;;21.98;2.22;;;36.90;99.90;;;;;;4996052;28;20197;-69
2021/12/18 01:57:00;;;;;;;18.77;1.83;;;37.00;99.90;;;;;;5013356;28;20205;-69
2021/12/18 01:59:48;;;;;;;6.88;1.80;;;36.20;99.90;;;;;;5013296;28;20635;-68
2021/12/18 02:02:16;;;;;;;7.43;2.05;;;36.60;99.90;;;;;;4993804;28;20571;-68
2021/12/18 02:04:45;;;;;;;7.05;1.65;;;36.90;99.90;;;;;;4996597;28;20621;-68
2021/12/18 02:07:14;;;;;;;10.35;1.92;;;36.70;99.90;;;;;;5012112;28;20182;-68
2021/12/18 02:12:11;;;;;;;21.48;2.03;;;37.10;99.90;;;;;;5013227;28;20261;-68
2021/12/18 02:22:55;;;;;;;6.55;1.38;;;36.80;99.90;;;;;;5007466;28;20182;-68
2021/12/18 02:25:24;;;;;;;5.13;1.95;;;36.10;99.90;;;;;;5013270;28;20277;-68
2021/12/18 02:27:55;;;;;;;7.03;1.55;;;36.00;99.90;;;;;;5002549;28;20214;-68
2021/12/18 02:30:24;;;;;;;4.45;1.35;;;36.30;99.90;;;;;;4992796;28;20266;-68
2021/12/18 02:32:53;;;;;;;20.20;2.40;;;36.90;99.90;;;;;;5012163;28;20265;-69
2021/12/18 02:35:35;;;;;;;8.73;1.80;;;37.30;99.90;;;;;;5010842;28;20181;-69
2021/12/18 02:38:12;;;;;;;9.95;1.70;;;37.00;99.90;;;;;;5013047;28;20514;-69
2021/12/18 02:43:14;;;;;;;12.68;1.40;;;36.60;99.90;;;;;;5013078;28;20165;-68
2021/12/18 02:45:42;;;;;;;6.57;1.40;;;36.50;99.90;;;;;;5010152;28;20189;-68
2021/12/18 02:48:10;;;;;;;4.10;1.67;;;36.60;99.90;;;;;;4999754;28;20187;-68
2021/12/18 02:50:41;;;;;;;14.70;1.70;;;36.90;99.90;;;;;;4993373;28;20652;-67
2021/12/18 02:53:09;;;;;;;8.10;1.58;;;36.90;99.90;;;;;;4993415;28;20237;-68
2021/12/18 02:55:36;;;;;;;3.92;1.23;;;37.00;99.90;;;;;;4993331;28;20257;-68
2021/12/18 02:58:04;;;;;;;8.98;1.35;;;36.80;99.90;;;;;;4993189;28;20177;-67
2021/12/18 03:00:32;;;;;;;7.55;1.48;;;36.50;99.90;;;;;;5005294;28;20581;-67
2021/12/18 03:03:05;;;;;;;6.57;1.45;;;36.50;99.90;;;;;;5011543;28;20184;-68
2021/12/18 03:05:40;;;;;;;4.10;1.27;;;37.10;99.90;;;;;;5006502;28;20194;-67
2021/12/18 03:08:15;;;;;;;8.38;1.73;;;37.60;99.90;;;;;;4993089;28;20214;-67
2021/12/18 03:23:03;;;;;;;10.55;1.38;;;38.10;99.90;;;;;;5006643;28;20233;-68
2021/12/18 03:27:19;;;;;;;5.78;1.60;;;38.20;99.90;;;;;;5003784;28;20265;-68
2021/12/18 03:29:47;;;;;;;4.63;1.55;;;37.80;99.90;;;;;;5012588;28;20224;-69
2021/12/18 03:32:15;;;;;;;12.57;2.22;;;37.30;99.90;;;;;;5012873;28;20578;-67
2021/12/18 03:34:43;;;;;;;6.93;1.40;;;37.40;99.90;;;;;;5012406;28;20197;-68
2021/12/18 03:37:11;;;;;;;9.25;2.10;;;37.10;99.90;;;;;;5011256;28;20261;-69
2021/12/18 03:39:38;;;;;;;10.10;1.40;;;37.20;99.90;;;;;;4992884;28;20301;-69
2021/12/18 03:42:07;;;;;;;4.13;1.33;;;37.30;99.90;;;;;;4995635;28;20179;-69
2021/12/18 03:44:35;;;;;;;13.07;1.63;;;37.40;99.90;;;;;;5013591;28;20185;-69
2021/12/18 03:47:03;;;;;;;9.48;1.58;;;38.00;99.90;;;;;;5005182;28;20189;-69
2021/12/18 03:49:31;;;;;;;9.23;1.75;;;38.50;99.90;;;;;;4996600;28;20174;-69
2021/12/18 03:51:59;;;;;;;16.38;1.73;;;38.20;99.90;;;;;;4996334;28;20178;-67
2021/12/18 03:54:27;;;;;;;5.03;1.27;;;38.10;99.90;;;;;;5015930;28;20178;-68
2021/12/18 03:56:54;;;;;;;2.95;1.40;;;37.50;99.90;;;;;;4999012;28;20179;-68
2021/12/18 03:59:22;;;;;;;5.28;1.38;;;37.30;99.90;;;;;;4995836;28;20218;-67
2021/12/18 04:01:50;;;;;;;6.75;1.42;;;37.20;99.90;;;;;;4996549;28;20253;-68
2021/12/18 04:04:18;;;;;;;3.92;1.30;;;37.10;99.90;;;;;;5014324;28;20197;-68
2021/12/18 04:06:46;;;;;;;5.45;1.20;;;37.20;99.90;;;;;;5015645;28;20178;-69
2021/12/18 04:09:13;;;;;;;5.75;1.40;;;37.90;99.90;;;;;;5015562;28;20182;-68
2021/12/18 04:11:42;;;;;;;25.98;2.33;;;38.30;99.90;;;;;;5012241;28;20660;-68
2021/12/18 04:14:11;;;;;;;4.68;1.63;;;39.30;99.90;;;;;;4978429;28;20240;-69
2021/12/18 04:16:39;;;;;;;5.05;1.20;;;39.70;98.00;;;;;;4995864;28;20221;-67
2021/12/18 04:19:07;;;;;;;3.38;1.27;;;39.80;97.20;;;;;;4996421;28;20234;-69
2021/12/18 04:21:35;;;;;;;9.00;1.30;;;39.80;96.80;;;;;;5015431;28;20177;-68
2021/12/18 04:24:04;;;;;;;7.13;1.45;;;39.90;96.30;;;;;;4996316;28;20232;-69
2021/12/18 04:26:33;;;;;;;3.65;1.25;;;39.80;95.50;;;;;;4995628;28;20209;-68
2021/12/18 04:29:05;;;;;;;5.47;1.20;;;39.40;94.50;;;;;;4995550;28;20186;-68
2021/12/18 04:31:38;;;;;;;11.43;1.40;;;39.60;95.40;;;;;;4978061;28;20717;-68
2021/12/18 04:34:07;;;;;;;3.90;1.20;;;39.90;95.60;;;;;;5014532;28;20246;-70
2021/12/18 04:36:35;;;;;;;5.15;1.10;;;39.50;93.80;;;;;;5015220;28;20612;-69
2021/12/18 04:39:05;;;;;;;4.18;1.05;;;39.40;94.40;;;;;;5014937;28;20690;-68
2021/12/18 04:41:42;;;;;;;5.55;1.38;;;39.40;95.80;;;;;;5013014;28;20178;-68
2021/12/18 04:44:10;;;;;;;4.65;1.65;;;39.00;94.80;;;;;;4993777;28;20183;-70
2021/12/18 04:46:38;;;;;;;11.40;2.05;;;39.30;93.30;;;;;;4997902;28;20251;-69
2021/12/18 04:49:06;;;;;;;3.17;1.17;;;39.50;95.20;;;;;;5013032;28;20189;-68
2021/12/18 04:51:34;;;;;;;4.10;1.20;;;38.90;92.40;;;;;;5012790;28;20166;-67
2021/12/18 04:54:01;;;;;;;3.13;1.05;;;38.70;93.10;;;;;;4994661;28;20191;-70
2021/12/18 04:56:29;;;;;;;4.00;1.40;;;39.30;91.70;;;;;;4996237;28;20560;-68
2021/12/18 04:58:57;;;;;;;4.00;1.30;;;39.20;91.90;;;;;;4977644;28;20214;-68
2021/12/18 05:01:25;;;;;;;6.95;1.63;;;39.10;90.30;;;;;;4995021;28;20640;-68
2021/12/18 05:03:53;;;;;;;3.33;1.10;;;39.40;91.10;;;;;;5011119;28;20622;-68
2021/12/18 05:06:21;;;;;;;4.55;1.05;;;39.50;91.10;;;;;;4996560;28;20178;-67
2021/12/18 05:08:48;;;;;;;16.30;1.45;;;39.20;90.50;;;;;;5014495;28;20178;-67
2021/12/18 05:11:16;;;;;;;8.70;1.65;;;38.80;90.30;;;;;;5013870;28;20185;-67
2021/12/18 05:13:44;;;;;;;4.53;1.20;;;38.30;90.80;;;;;;4999320;28;20186;-69
2021/12/18 05:16:11;;;;;;;4.60;0.90;;;38.10;91.20;;;;;;4994904;28;20174;-69
2021/12/18 05:18:39;;;;;;;4.28;1.50;;;37.60;92.00;;;;;;4994629;28;20310;-68
2021/12/18 05:21:07;;;;;;;2.17;1.25;;;37.40;94.80;;;;;;4995007;28;20166;-68
2021/12/18 05:23:34;;;;;;;6.97;1.48;;;37.60;94.30;;;;;;4990368;28;20196;-67
2021/12/18 05:26:02;;;;;;;5.45;1.23;;;38.10;95.80;;;;;;5014250;28;20205;-68
2021/12/18 05:28:30;;;;;;;12.45;1.40;;;38.40;92.70;;;;;;5014209;28;20642;-68
2021/12/18 05:30:57;;;;;;;5.72;1.13;;;38.20;94.20;;;;;;5013623;28;20237;-70
2021/12/18 05:33:25;;;;;;;11.88;2.03;;;38.00;93.00;;;;;;5001716;28;20179;-69
2021/12/18 05:35:53;;;;;;;4.22;0.95;;;37.80;94.80;;;;;;4994364;28;20194;-69
2021/12/18 05:38:20;;;;;;;4.47;1.10;;;37.50;93.70;;;;;;4994159;28;20214;-68
2021/12/18 05:40:48;;;;;;;2.38;1.15;;;37.10;94.30;;;;;;5009513;28;20227;-67
2021/12/18 05:43:16;;;;;;;4.93;1.52;;;36.90;95.10;;;;;;5002965;28;20181;-68
2021/12/18 05:45:44;;;;;;;5.35;1.70;;;37.30;96.90;;;;;;4994392;28;20647;-68
2021/12/18 05:48:11;;;;;;;4.10;1.25;;;37.60;96.10;;;;;;4994259;28;20175;-68
2021/12/18 05:50:39;;;;;;;4.32;1.00;;;37.80;95.30;;;;;;4994063;28;20201;-70
2021/12/18 05:53:07;;;;;;;24.80;2.15;;;37.80;93.60;;;;;;5002822;28;20699;-68
2021/12/18 05:55:35;;;;;;;1.95;0.90;;;37.60;93.00;;;;;;5013448;28;20182;-68
2021/12/18 05:58:03;;;;;;;3.92;1.20;;;37.60;94.60;;;;;;5013462;28;20205;-68
2021/12/18 06:00:30;;;;;;;5.40;1.15;;;37.40;93.10;;;;;;5013163;28;20669;-68
2021/12/18 06:02:58;;;;;;;2.38;1.00;;;37.40;92.50;;;;;;5005771;28;20280;-69
2021/12/18 06:05:26;;;;;;;12.75;1.60;;;37.60;92.10;;;;;;4992932;28;20179;-67
2021/12/18 06:07:56;;;;;;;5.30;0.80;;;38.00;90.00;;;;;;5009730;28;20182;-68
2021/12/18 06:10:28;;;;;;;3.88;1.35;;;38.50;85.80;;;;;;5013506;28;20663;-68
2021/12/18 06:13:01;;;;;;;4.97;1.20;;;39.20;88.80;;;;;;5006216;28;20230;-68
2021/12/18 06:15:30;;;;;;;11.38;1.63;;;39.30;86.50;;;;;;4993737;28;20551;-68
2021/12/18 06:17:59;;;;;;;12.10;1.45;;;39.50;84.00;;;;;;4993488;28;20175;-69
2021/12/18 06:20:28;;;;;;;3.20;1.50;;;39.50;85.10;;;;;;4993709;28;20636;-68
2021/12/18 06:22:57;;;;;;;9.90;1.10;;;39.60;87.20;;;;;;5000145;28;20221;-67
2021/12/18 06:25:25;;;;;;;5.55;0.88;;;39.60;80.20;;;;;;5011910;28;20507;-68
2021/12/18 06:27:53;;;;;;;4.70;0.93;;;39.50;71.00;;;;;;5013256;28;20682;-68
2021/12/18 06:30:21;;;;;;;8.88;1.27;;;39.60;72.50;;;;;;5011918;28;20693;-67
2021/12/18 06:32:49;;;;;;;5.13;0.63;;;39.30;74.00;;;;;;5011862;28;20555;-67
2021/12/18 06:35:16;;;;;;;7.53;1.60;;;39.50;69.80;;;;;;5013283;28;20634;-69
2021/12/18 06:37:44;;;;;;;1.55;0.70;;;39.40;69.70;;;;;;5013165;28;20213;-68
2021/12/18 06:40:12;;;;;;;2.15;0.80;;;39.30;67.70;;;;;;5013142;28;20237;-68
2021/12/18 06:42:40;;;;;;;5.38;0.57;;;39.50;71.40;;;;;;5006255;28;20544;-68
2021/12/18 06:45:10;;;;;;;4.38;1.00;;;39.50;68.50;;;;;;4998418;28;20634;-67
2021/12/18 06:47:38;;;;;;;6.45;0.90;;;39.40;68.10;;;;;;5012943;28;20239;-69
2021/12/18 06:50:07;;;;;;;10.48;1.20;;;39.60;70.80;;;;;;5005350;28;20189;-69
2021/12/18 06:52:35;;;;;;;4.28;0.73;;;39.80;71.30;;;;;;4995067;28;20177;-68
2021/12/18 06:55:03;;;;;;;6.70;1.20;;;39.80;67.70;;;;;;4995994;28;20188;-69
2021/12/18 06:57:31;;;;;;;23.15;1.90;;;39.90;68.70;;;;;;4995779;28;20185;-69
2021/12/18 06:59:59;;;;;;;6.13;1.35;;;39.50;75.10;;;;;;4994957;28;20264;-68
2021/12/18 07:02:29;;;;;;;6.22;1.80;;;39.30;82.30;;;;;;4998465;28;20206;-69
2021/12/18 07:04:57;;;;;;;1.88;1.05;;;38.90;85.80;;;;;;5010722;28;20614;-68
2021/12/18 07:07:25;;;;;;;4.72;1.30;;;38.80;85.70;;;;;;5012798;28;20249;-69
2021/12/18 07:09:53;;;;;;;3.78;1.23;;;38.90;84.80;;;;;;5012897;28;20293;-68
2021/12/18 07:12:21;;;;;;;9.40;1.25;;;38.90;88.30;;;;;;5012792;28;20235;-68
2021/12/18 07:14:49;;;;;;;5.25;1.48;;;38.90;86.40;;;;;;4999116;28;20175;-68
2021/12/18 07:17:16;;;;;;;2.72;1.20;;;38.50;86.50;;;;;;4997341;28;20182;-69
2021/12/18 07:19:44;;;;;;;4.32;1.20;;;38.40;88.20;;;;;;4997909;28;20214;-69
2021/12/18 07:22:12;;;;;;;1.38;0.93;;;38.10;88.40;;;;;;4997358;28;20313;-68
2021/12/18 07:24:39;;;;;;;6.82;1.30;;;38.20;91.10;;;;;;4996767;28;20174;-68
2021/12/18 07:27:07;;;;;;;4.53;1.45;;;38.30;91.30;;;;;;4996984;28;20695;-68
2021/12/18 07:29:35;;;;;;;4.47;1.35;;;38.20;90.80;;;;;;4998066;28;20700;-69
2021/12/18 07:32:03;;;;;;;6.18;2.00;;;37.60;91.20;;;;;;5007079;28;20178;-68
2021/12/18 07:34:31;;;;;;;3.13;1.02;;;37.50;92.10;;;;;;5004440;28;20187;-68
2021/12/18 07:36:59;;;;;;;3.80;1.13;;;37.50;92.80;;;;;;4996709;28;20273;-69
2021/12/18 07:39:26;;;;;;;5.93;1.30;;;37.50;93.50;;;;;;4999627;28;20210;-70
2021/12/18 07:41:54;;;;;;;3.53;1.27;;;37.40;93.00;;;;;;5016517;28;20174;-68
2021/12/18 07:44:22;;;;;;;3.10;1.30;;;37.40;94.00;;;;;;5006838;28;20202;-68
2021/12/18 07:46:50;;;;;;;6.93;1.15;;;37.30;93.90;;;;;;4996489;28;20690;-69
2021/12/18 07:49:17;;;;;;;5.63;1.40;;;37.30;94.80;;;;;;5006474;28;20683;-69
2021/12/18 07:51:45;;;;;;;6.60;1.38;;;37.00;94.50;;;;;;4996306;28;20551;-68
2021/12/18 07:54:13;;;;;;;5.68;0.93;;;37.00;96.50;;;;;;4997137;28;20186;-68
2021/12/18 07:56:41;;;;;;;3.50;1.10;;;36.50;96.10;;;;;;5015656;28;20205;-69
2021/12/18 07:59:08;;;;;;;5.50;1.50;;;36.20;98.50;;;;;;4997272;28;20585;-68
2021/12/18 08:01:36;;;;;;;4.10;1.70;;;35.90;99.10;;;;;;4996155;28;20258;-69
2021/12/18 08:04:04;;;;;;;3.40;1.20;;;35.80;99.90;;;;;;4996276;28;20181;-69
2021/12/18 08:06:32;;;;;;;6.13;1.45;;;35.60;99.90;;;;;;4996139;28;20175;-68
2021/12/18 08:08:59;;;;;;;5.63;1.00;;;35.50;99.90;;;;;;4997332;28;20185;-68
2021/12/18 08:11:27;;;;;;;4.40;0.93;;;35.40;99.90;;;;;;5014419;28;20181;-69
2021/12/18 08:13:56;;;;;;;4.72;1.23;;;35.30;99.90;;;;;;5015696;28;20240;-69
2021/12/18 08:16:23;;;;;;;7.18;1.00;;;35.10;99.90;;;;;;5032907;28;20174;-67
2021/12/18 08:18:51;;;;;;;3.30;1.35;;;35.00;99.90;;;;;;5013068;28;20202;-68
2021/12/18 08:21:19;;;;;;;3.92;1.23;;;34.90;99.90;;;;;;5000768;28;20195;-69
2021/12/18 08:23:46;;;;;;;6.00;2.20;;;34.80;99.90;;;;;;4995881;28;20265;-69
2021/12/18 08:26:14;;;;;;;5.75;2.22;;;34.80;99.90;;;;;;4995816;28;20189;-68
2021/12/18 08:28:42;;;;;;;9.63;2.00;;;34.80;99.90;;;;;;4994747;28;20175;-68
2021/12/18 08:31:10;;;;;;;5.00;1.55;;;34.70;99.90;;;;;;4996484;28;20301;-69
2021/12/18 08:33:38;;;;;;;5.90;1.60;;;34.60;99.90;;;;;;4995813;28;20175;-69
2021/12/18 08:36:06;;;;;;;5.75;1.50;;;34.60;99.90;;;;;;5003802;28;20188;-70
2021/12/18 08:38:33;;;;;;;6.72;1.23;;;34.40;99.90;;;;;;5015266;28;20671;-69
2021/12/18 08:41:01;;;;;;;4.40;1.17;;;34.40;99.90;;;;;;4996921;28;20209;-69
2021/12/18 08:43:29;;;;;;;4.03;1.50;;;34.40;99.90;;;;;;5014670;28;20177;-69
2021/12/18 08:45:57;;;;;;;4.82;1.48;;;34.30;99.90;;;;;;5015017;28;20182;-69
2021/12/18 08:48:25;;;;;;;6.68;1.42;;;34.20;99.90;;;;;;5015120;28;20624;-70
2021/12/18 08:50:53;;;;;;;3.17;0.98;;;34.10;99.90;;;;;;4979556;28;20197;-69
2021/12/18 08:53:20;;;;;;;2.53;1.08;;;34.10;99.90;;;;;;5011783;28;20178;-68
2021/12/18 08:55:48;;;;;;;5.43;1.30;;;33.90;99.90;;;;;;5014993;28;20183;-69
2021/12/18 08:58:17;;;;;;;7.72;1.30;;;33.80;99.90;;;;;;5014654;28;20227;-69
2021/12/18 09:00:45;;;;;;;6.70;1.45;;;33.80;99.90;;;;;;4994927;28;20197;-68
2021/12/18 09:03:12;;;;;;;5.07;1.30;;;33.70;99.90;;;;;;5014351;28;20670;-68
2021/12/18 09:05:40;;;;;;;4.95;1.75;;;33.70;99.90;;;;;;4997137;28;20211;-67
2021/12/18 09:08:08;;;;;;;3.50;1.10;;;33.50;99.90;;;;;;5014625;28;20182;-69
2021/12/18 09:10:36;;;;;;;10.95;1.67;;;33.40;99.90;;;;;;5005338;28;20178;-69
2021/12/18 09:13:04;;;;;;;6.25;1.70;;;33.30;99.90;;;;;;4994963;28;20178;-69
2021/12/18 09:15:31;;;;;;;3.22;1.25;;;33.30;99.90;;;;;;4994901;28;20186;-69
2021/12/18 09:17:59;;;;;;;3.08;1.40;;;33.20;99.90;;;;;;4994909;28;20178;-69
2021/12/18 09:20:27;;;;;;;8.02;1.55;;;33.20;99.90;;;;;;4995822;28;20206;-69
2021/12/18 09:22:55;;;;;;;3.78;1.30;;;33.20;99.90;;;;;;4994652;28;20234;-68
2021/12/18 09:25:22;;;;;;;10.25;1.50;;;33.30;99.90;;;;;;4994670;28;20179;-68
2021/12/18 09:27:50;;;;;;;6.63;1.58;;;33.30;99.90;;;;;;5002109;28;20182;-68
2021/12/18 09:30:18;;;;;;;3.08;0.90;;;33.30;99.90;;;;;;5003656;28;20234;-70
2021/12/18 09:32:45;;;;;;;2.47;1.02;;;33.30;99.90;;;;;;4994770;28;20174;-72
2021/12/18 09:35:13;;;;;;;3.55;1.00;;;33.40;99.90;;;;;;4994870;28;20179;-73
2021/12/18 09:37:41;;;;;;;3.42;0.88;;;33.40;99.90;;;;;;4994624;28;20178;-72
2021/12/18 09:40:11;;;;;;;3.53;1.15;;;33.30;99.90;;;;;;5002631;28;20268;-70
2021/12/18 09:42:40;;;;;;;3.95;1.35;;;33.10;99.90;;;;;;5014393;28;20186;-70
2021/12/18 09:45:08;;;;;;;4.85;0.93;;;33.10;99.90;;;;;;5012907;28;20212;-71
2021/12/18 09:47:37;;;;;;;2.60;1.20;;;33.10;99.90;;;;;;5014214;28;20196;-72
2021/12/18 09:50:06;;;;;;;3.45;1.52;;;33.00;99.90;;;;;;5008574;28;20186;-71
2021/12/18 09:52:35;;;;;;;3.58;1.30;;;32.90;99.90;;;;;;4994516;28;20181;-72
2021/12/18 09:55:06;;;;;;;6.47;1.42;;;32.90;99.90;;;;;;5003465;28;20214;-72
2021/12/18 09:57:34;;;;;;;6.72;1.35;;;32.80;99.90;;;;;;5014061;28;20178;-69
2021/12/18 10:00:04;;;;;;;2.88;1.30;;;32.60;99.90;;;;;;5009108;28;20268;-70
2021/12/18 10:02:32;;;;;;;5.45;1.73;;;32.50;99.90;;;;;;4994525;28;20179;-72
2021/12/18 10:04:59;;;;;;;5.30;1.70;;;32.40;99.90;;;;;;4994283;28;20182;-70
2021/12/18 10:07:28;;;;;;;4.68;1.63;;;32.40;99.90;;;;;;4994306;28;20182;-70
2021/12/18 10:09:58;;;;;;;9.55;2.28;;;32.30;99.90;;;;;;4995157;28;20190;-71
2021/12/18 10:12:30;;;;;;;6.28;1.83;;;32.30;99.90;;;;;;4994186;28;20260;-71
2021/12/18 10:15:12;;;;;;;3.78;1.17;;;32.10;99.90;;;;;;4994568;28;20183;-68
2021/12/18 10:17:42;;;;;;;1.85;1.00;;;32.10;99.90;;;;;;4994310;28;20186;-69
2021/12/18 10:20:23;;;;;;;8.48;1.40;;;32.10;99.90;;;;;;4994995;28;20263;-70
2021/12/18 10:23:01;;;;;;;5.15;1.25;;;32.10;99.90;;;;;;4994047;28;20197;-71
2021/12/18 10:25:43;;;;;;;2.15;0.80;;;32.10;99.90;;;;;;4993986;28;20666;-71
2021/12/18 10:28:16;;;;;;;5.75;1.40;;;32.10;99.90;;;;;;4998503;28;20575;-69
2021/12/18 10:30:51;;;;;;;4.03;1.27;;;32.10;99.90;;;;;;4997224;28;20241;-72
2021/12/18 10:33:19;;;;;;;5.10;1.77;;;32.10;99.90;;;;;;4993836;28;20271;-70
2021/12/18 10:35:50;;;;;;;10.18;2.05;;;32.00;99.90;;;;;;4993660;28;20228;-70
2021/12/18 10:38:46;;;;;;;9.18;2.28;;;31.90;99.90;;;;;;4994015;28;20547;-71
2021/12/18 10:41:35;;;;;;;6.85;1.73;;;31.80;99.90;;;;;;5012997;28;20181;-70
2021/12/18 10:44:03;;;;;;;8.00;1.95;;;31.70;99.90;;;;;;5013519;28;20257;-71
2021/12/18 10:46:32;;;;;;;6.57;1.52;;;31.70;99.90;;;;;;4989597;28;20277;-70
2021/12/18 10:49:03;;;;;;;5.97;2.00;;;31.60;99.90;;;;;;4994559;28;20175;-72
2021/12/18 10:51:33;;;;;;;10.65;2.20;;;31.60;99.90;;;;;;5015189;28;20212;-71
2021/12/18 10:54:21;;;;;;;6.78;1.80;;;31.50;99.90;;;;;;5017290;28;20585;-72
2021/12/18 10:56:55;;;;;;;7.35;1.73;;;31.40;99.90;;;;;;4999741;28;20546;-71
2021/12/18 10:59:24;;;;;;;3.50;1.73;;;31.40;99.90;;;;;;5012204;28;20213;-73
2021/12/18 11:02:03;;;;;;;4.40;1.70;;;31.40;99.90;;;;;;4980202;28;20174;-70
2021/12/18 11:04:38;;;;;;;5.47;1.50;;;31.40;99.90;;;;;;4997759;28;20537;-71
2021/12/18 11:07:33;;;;;;;3.97;1.55;;;31.40;99.90;;;;;;4997720;28;20635;-72
2021/12/18 11:10:42;;;;;;;4.50;1.70;;;31.30;99.90;;;;;;5007142;28;20537;-72
2021/12/18 11:15:57;;;;;;;6.07;1.63;;;31.20;99.90;;;;;;5017330;28;20669;-72
2021/12/18 11:18:25;;;;;;;9.32;1.80;;;31.10;99.90;;;;;;5017317;28;20178;-72
2021/12/18 11:20:53;;;;;;;6.53;1.45;;;31.10;99.90;;;;;;5000435;28;20187;-72
2021/12/18 11:23:43;;;;;;;3.07;1.20;;;31.00;99.90;;;;;;4998704;28;20249;-72
2021/12/18 11:26:15;;;;;;;6.50;1.43;;;30.90;99.90;;;;;;4999110;28;20182;-71
2021/12/18 11:28:50;;;;;;;3.13;1.23;;;30.80;99.90;;;;;;5015629;28;20197;-71
2021/12/18 11:31:19;;;;;;;7.90;1.33;;;30.70;99.90;;;;;;4997429;28;20194;-70
2021/12/18 11:33:46;;;;;;;2.58;1.48;;;30.60;99.90;;;;;;4997055;28;20552;-71
2021/12/18 11:36:18;;;;;;;4.47;1.53;;;30.40;99.90;;;;;;4997011;28;20233;-71
2021/12/18 11:38:48;;;;;;;2.35;1.35;;;30.40;99.90;;;;;;4996970;28;20265;-72
2021/12/18 11:41:18;;;;;;;6.87;1.70;;;30.30;99.90;;;;;;5015504;28;20185;-72
2021/12/18 11:43:47;;;;;;;4.60;1.70;;;30.30;99.90;;;;;;4999025;28;20637;-68
2021/12/18 11:46:41;;;;;;;2.90;1.27;;;30.30;99.90;;;;;;5016255;28;20241;-69
2021/12/18 11:49:10;;;;;;;6.18;1.50;;;30.30;99.90;;;;;;5012632;28;20694;-71
2021/12/18 11:51:39;;;;;;;4.90;1.20;;;30.50;99.90;;;;;;4979086;28;20606;-72
2021/12/18 11:54:44;;;;;;;11.43;1.10;;;31.00;99.90;;;;;;4996866;28;20178;-72
2021/12/18 11:57:13;;;;;;;14.43;1.07;;;30.00;99.90;;;;;;4996806;28;20257;-72
2021/12/18 11:59:44;;;;;;;7.20;0.70;;;29.00;99.90;;;;;;5003031;28;20275;-70
2021/12/18 12:02:13;;;;;;;9.20;0.80;;;28.60;99.90;;;;;;5015924;28;20170;-69
2021/12/18 12:04:59;;;;;;;9.73;0.90;;;28.30;99.90;;;;;;5015951;28;20177;-72
2021/12/18 12:07:27;;;;;;;7.83;0.70;;;28.00;99.90;;;;;;5003398;28;20800;-71
2021/12/18 12:10:34;;;;;;;4.63;1.17;;;27.40;99.90;;;;;;5007396;28;20186;-72
2021/12/18 12:13:06;;;;;;;5.70;0.80;;;26.40;99.90;;;;;;5014462;28;20252;-69
2021/12/18 12:15:34;;;;;;;3.83;0.97;;;25.70;99.90;;;;;;5015919;28;20174;-70
2021/12/18 12:18:08;;;;;;;4.80;1.27;;;25.00;99.90;;;;;;5015851;28;20182;-70
2021/12/18 12:20:46;;;;;;;2.23;1.00;;;24.40;99.90;;;;;;4999264;28;20229;-72
2021/12/18 12:23:15;;;;;;;4.73;1.13;;;23.90;99.90;;;;;;4996564;28;20237;-72
2021/12/18 12:25:52;;;;;;;2.40;0.93;;;23.60;99.90;;;;;;4996113;28;20207;-73
2021/12/18 12:28:26;;;;;;;6.70;0.97;;;23.40;99.90;;;;;;4996599;28;20210;-72
2021/12/18 12:31:00;;;;;;;4.67;0.70;;;23.30;99.90;;;;;;4994701;28;20225;-72
2021/12/18 12:33:33;;;;;;;4.40;1.03;;;23.20;99.90;;;;;;5009852;28;20186;-71
2021/12/18 12:36:23;;;;;;;3.37;0.90;;;23.10;99.90;;;;;;5015662;28;20181;-73
2021/12/18 12:38:56;;;;;;;1.90;0.70;;;23.10;99.90;;;;;;5014426;28;20238;-73
2021/12/18 12:41:53;;;;;;;4.50;1.33;;;23.10;99.90;;;;;;4997822;28;20544;-73
2021/12/18 12:44:26;;;;;;;6.03;1.50;;;23.10;99.90;;;;;;4995993;28;20190;-73
2021/12/18 12:50:16;;;;;;;4.07;1.00;;;22.60;99.90;;;;;;5009851;28;20212;-72
2021/12/18 12:52:56;;;;;;;2.60;1.20;;;22.60;99.90;;;;;;5005552;28;20202;-72
2021/12/18 12:55:28;;;;;;;1.63;0.87;;;22.60;99.90;;;;;;4995923;28;20179;-71
2021/12/18 12:58:01;;;;;;;5.37;1.00;;;22.60;99.90;;;;;;4995781;28;20186;-72
2021/12/18 13:00:29;;;;;;;1.93;0.60;;;22.60;99.90;;;;;;4995503;28;20222;-73
2021/12/18 13:03:01;;;;;;;4.17;0.90;;;22.70;99.90;;;;;;5006272;28;20654;-73
2021/12/18 13:05:30;;;;;;;4.60;1.10;;;22.70;99.90;;;;;;5009963;28;20272;-71
2021/12/18 13:08:01;;;;;;;3.40;1.20;;;22.60;99.90;;;;;;4995387;28;20183;-72
2021/12/18 13:10:36;;;;;;;6.47;1.20;;;22.50;99.90;;;;;;4995304;28;20210;-72
2021/12/18 13:13:08;;;;;;;7.17;1.90;;;22.30;99.90;;;;;;4996059;28;20190;-73
2021/12/18 13:15:56;;;;;;;3.90;1.07;;;22.20;99.90;;;;;;4995962;28;20186;-72
2021/12/18 13:18:30;;;;;;;4.30;1.47;;;22.20;99.90;;;;;;5014938;28;20184;-71
2021/12/18 13:21:16;;;;;;;4.30;1.17;;;22.20;99.90;;;;;;5015240;28;20231;-71
2021/12/18 13:23:51;;;;;;;6.80;1.27;;;22.10;99.90;;;;;;4996044;28;20198;-72
2021/12/18 13:26:28;;;;;;;4.87;1.03;;;22.20;99.90;;;;;;4994964;28;20244;-73
2021/12/18 13:28:59;;;;;;;4.20;1.17;;;22.00;99.90;;;;;;5003478;28;20698;-72
2021/12/18 13:31:34;;;;;;;4.80;1.57;;;21.90;99.90;;;;;;5011973;28;20328;-72
2021/12/18 13:34:05;;;;;;;4.07;1.40;;;21.80;99.90;;;;;;4994994;28;20655;-72
2021/12/18 13:36:45;;;;;;;5.80;1.40;;;21.60;99.90;;;;;;4994607;28;20240;-71
2021/12/18 13:39:20;;;;;;;4.60;1.70;;;21.50;99.90;;;;;;4994992;28;20217;-71
2021/12/18 13:42:20;;;;;;;2.47;1.33;;;21.50;99.90;;;;;;4999873;28;20183;-73
2021/12/18 13:44:58;;;;;;;7.03;1.70;;;21.50;99.90;;;;;;5004006;28;20582;-71
2021/12/18 13:47:37;;;;;;;5.43;1.57;;;21.60;99.90;;;;;;5014449;28;20174;-73
2021/12/18 13:50:17;;;;;;;3.43;1.37;;;21.60;99.90;;;;;;5014420;28;20177;-73